createdAt,value
2023-05-22T00:00:55.195Z,101194.16
2023-05-22T00:03:27.479Z,101189.41
2023-05-22T00:05:58.846Z,101188.41
2023-05-22T00:08:29.826Z,101193.97
2023-05-22T00:10:57.171Z,101190.59
2023-05-22T00:13:23.930Z,101184.97
2023-05-22T00:15:50.945Z,101180.19
2023-05-22T00:18:17.871Z,101181.56
2023-05-22T00:20:47.170Z,101183.41
2023-05-22T00:23:17.308Z,101184.78
2023-05-22T00:25:52.022Z,101172.19
2023-05-22T00:28:18.825Z,101170.13
2023-05-22T00:30:48.032Z,101177.28
2023-05-22T00:33:17.555Z,101180.00
2023-05-22T00:35:47.734Z,101168.94
2023-05-22T00:38:36.640Z,101175.19
2023-05-22T00:41:08.300Z,101176.34
2023-05-22T00:43:35.553Z,101174.13
2023-05-22T00:46:02.276Z,101171.41
2023-05-22T00:48:29.135Z,101180.69
2023-05-22T00:50:59.108Z,101175.22
2023-05-22T00:53:28.654Z,101170.28
2023-05-22T00:55:59.962Z,101167.66
2023-05-22T00:58:33.156Z,101173.28
2023-05-22T01:01:01.163Z,101173.56
2023-05-22T01:03:29.928Z,101171.03
2023-05-22T01:05:57.004Z,101170.00
2023-05-22T01:08:24.039Z,101175.78
2023-05-22T01:11:06.867Z,101176.41
2023-05-22T01:14:07.854Z,101177.25
2023-05-22T01:17:12.756Z,101179.25
2023-05-22T01:21:06.613Z,101186.69
2023-05-22T01:24:48.742Z,101167.69
2023-05-22T01:28:08.534Z,101175.69
2023-05-22T01:31:01.992Z,101175.81
2023-05-22T01:33:43.680Z,101160.75
2023-05-22T01:36:15.771Z,101157.47
2023-05-22T01:39:00.400Z,101164.44
2023-05-22T01:41:41.738Z,101159.34
2023-05-22T01:44:08.440Z,101157.13
2023-05-22T01:46:37.202Z,101163.22
2023-05-22T01:49:06.740Z,101162.53
2023-05-22T01:52:05.941Z,101159.13
2023-05-22T01:54:57.151Z,101155.72
2023-05-22T01:57:57.298Z,101153.88
2023-05-22T02:00:27.660Z,101157.59
2023-05-22T02:03:16.633Z,101155.88
2023-05-22T02:05:55.637Z,101153.50
2023-05-22T02:08:27.674Z,101152.47
2023-05-22T02:11:00.604Z,101153.34
2023-05-22T02:13:28.120Z,101147.06
2023-05-22T02:15:59.173Z,101147.25
2023-05-22T02:18:29.595Z,101144.53
2023-05-22T02:20:58.241Z,101145.00
2023-05-22T02:23:25.905Z,101145.00
2023-05-22T02:25:55.178Z,101140.06
2023-05-22T02:28:22.341Z,101144.78
2023-05-22T02:30:52.170Z,101135.81
2023-05-22T02:33:19.107Z,101143.41
2023-05-22T02:35:46.187Z,101140.00
2023-05-22T02:38:13.641Z,101143.03
2023-05-22T02:40:43.321Z,101145.75
2023-05-22T02:43:10.068Z,101146.22
2023-05-22T02:45:36.940Z,101137.38
2023-05-22T02:48:06.327Z,101130.59
2023-05-22T02:50:37.244Z,101129.19
2023-05-22T02:53:06.014Z,101124.09
2023-05-22T02:55:32.760Z,101123.41
2023-05-22T02:57:59.494Z,101116.44
2023-05-22T03:00:28.290Z,101114.03
2023-05-22T03:02:57.539Z,101112.66
2023-05-22T03:05:24.551Z,101104.84
2023-05-22T03:07:59.287Z,101101.44
2023-05-22T03:10:25.990Z,101094.50
2023-05-22T03:12:56.773Z,101099.06
2023-05-22T03:15:23.517Z,101100.22
2023-05-22T03:18:00.204Z,101100.22
2023-05-22T03:20:27.201Z,101097.81
2023-05-22T03:23:00.088Z,101099.53
2023-05-22T03:25:26.911Z,101101.91
2023-05-22T03:27:56.800Z,101097.19
2023-05-22T03:30:23.605Z,101090.94
2023-05-22T03:32:56.475Z,101096.50
2023-05-22T03:35:24.785Z,101085.69
2023-05-22T03:38:00.837Z,101093.47
2023-05-22T03:40:27.519Z,101086.06
2023-05-22T03:42:56.964Z,101083.91
2023-05-22T03:45:24.227Z,101078.47
2023-05-22T03:47:59.746Z,101086.47
2023-05-22T03:50:26.460Z,101085.13
2023-05-22T03:52:58.436Z,101084.97
2023-05-22T03:55:28.104Z,101091.91
2023-05-22T03:57:57.975Z,101086.81
2023-05-22T04:00:26.747Z,101094.31
2023-05-22T04:02:58.704Z,101096.38
2023-05-22T04:05:25.856Z,101093.38
2023-05-22T04:08:00.093Z,101088.81
2023-05-22T04:10:29.013Z,101095.28
2023-05-22T04:12:59.930Z,101087.00
2023-05-22T04:15:27.055Z,101092.94
2023-05-22T04:18:00.779Z,101080.78
2023-05-22T04:20:27.716Z,101082.19
2023-05-22T04:22:57.664Z,101082.53
2023-05-22T04:25:24.500Z,101081.53
2023-05-22T04:27:55.568Z,101082.75
2023-05-22T04:30:22.316Z,101091.09
2023-05-22T04:32:54.186Z,101086.91
2023-05-22T04:35:26.133Z,101088.16
2023-05-22T04:38:02.670Z,101083.13
2023-05-22T04:40:32.235Z,101075.56
2023-05-22T04:43:00.721Z,101085.81
2023-05-22T04:45:30.800Z,101084.53
2023-05-22T04:47:57.480Z,101082.31
2023-05-22T04:50:24.882Z,101096.78
2023-05-22T04:52:57.560Z,101083.56
2023-05-22T04:55:24.485Z,101089.81
2023-05-22T04:57:58.246Z,101091.81
2023-05-22T05:00:28.319Z,101089.88
2023-05-22T05:03:07.024Z,101087.72
2023-05-22T05:05:41.693Z,101089.94
2023-05-22T05:08:08.549Z,101077.56
2023-05-22T05:10:35.554Z,101083.97
2023-05-22T05:13:02.543Z,101081.19
2023-05-22T05:15:33.460Z,101081.47
2023-05-22T05:18:00.220Z,101085.78
2023-05-22T05:20:27.598Z,101082.09
2023-05-22T05:22:57.473Z,101082.34
2023-05-22T05:25:24.173Z,101082.19
2023-05-22T05:27:51.039Z,101082.94
2023-05-22T05:30:20.509Z,101085.78
2023-05-22T05:32:47.679Z,101075.25
2023-05-22T05:35:14.858Z,101077.94
2023-05-22T05:37:43.867Z,101085.25
2023-05-22T05:40:11.633Z,101082.63
2023-05-22T05:42:38.340Z,101078.31
2023-05-22T05:45:11.860Z,101079.03
2023-05-22T05:47:38.756Z,101083.16
2023-05-22T05:50:07.206Z,101078.94
2023-05-22T05:52:34.195Z,101082.41
2023-05-22T05:55:00.976Z,101085.50
2023-05-22T05:57:31.778Z,101085.38
2023-05-22T05:59:58.514Z,101087.47
2023-05-22T06:02:25.370Z,101085.06
2023-05-22T06:04:59.790Z,101084.69
2023-05-22T06:07:28.524Z,101082.44
2023-05-22T06:10:02.962Z,101084.19
2023-05-22T06:12:29.808Z,101091.31
2023-05-22T06:15:08.849Z,101092.94
2023-05-22T06:17:37.438Z,101094.03
2023-05-22T06:20:07.487Z,101090.47
2023-05-22T06:22:34.234Z,101099.28
2023-05-22T06:25:01.222Z,101082.16
2023-05-22T06:27:31.043Z,101089.94
2023-05-22T06:30:01.925Z,101093.03
2023-05-22T06:32:28.919Z,101099.06
2023-05-22T06:35:01.501Z,101094.25
2023-05-22T06:37:28.289Z,101101.97
2023-05-22T06:40:01.859Z,101097.03
2023-05-22T06:42:28.613Z,101098.28
2023-05-22T06:45:17.842Z,101096.69
2023-05-22T06:47:44.636Z,101094.28
2023-05-22T06:50:14.262Z,101097.44
2023-05-22T06:52:44.178Z,101093.63
2023-05-22T06:55:11.098Z,101098.06
2023-05-22T06:57:37.817Z,101099.84
2023-05-22T07:00:11.661Z,101092.34
2023-05-22T07:02:39.302Z,101096.59
2023-05-22T07:05:09.551Z,101098.25
2023-05-22T07:07:39.547Z,101093.94
2023-05-22T07:10:07.932Z,101092.13
2023-05-22T07:12:34.729Z,101093.09
2023-05-22T07:15:01.855Z,101097.75
2023-05-22T07:17:28.768Z,101095.63
2023-05-22T07:20:08.112Z,101097.41
2023-05-22T07:22:34.801Z,101092.97
2023-05-22T07:25:10.659Z,101100.06
2023-05-22T07:27:37.480Z,101088.63
2023-05-22T07:30:08.186Z,101086.06
2023-05-22T07:32:34.887Z,101082.69
2023-05-22T07:35:10.679Z,101091.69
2023-05-22T07:37:38.202Z,101084.44
2023-05-22T07:40:09.794Z,101084.72
2023-05-22T07:42:36.499Z,101090.06
2023-05-22T07:45:04.919Z,101091.06
2023-05-22T07:47:31.657Z,101086.88
2023-05-22T07:50:06.317Z,101090.69
2023-05-22T07:52:33.057Z,101092.63
2023-05-22T07:55:02.864Z,101085.97
2023-05-22T07:57:32.849Z,101085.72
2023-05-22T08:00:17.822Z,101078.59
2023-05-22T08:02:45.259Z,101082.66
2023-05-22T08:05:12.180Z,101094.44
2023-05-22T08:07:39.262Z,101080.28
2023-05-22T08:10:21.140Z,101084.34
2023-05-22T08:12:47.892Z,101078.34
2023-05-22T08:15:14.812Z,101080.81
2023-05-22T08:17:41.604Z,101077.50
2023-05-22T08:20:09.496Z,101071.25
2023-05-22T08:22:39.207Z,101077.84
2023-05-22T08:25:09.679Z,101079.63
2023-05-22T08:27:38.032Z,101074.94
2023-05-22T08:30:09.089Z,101070.22
2023-05-22T08:32:36.121Z,101081.25
2023-05-22T08:35:09.551Z,101077.69
2023-05-22T08:37:38.925Z,101069.47
2023-05-22T08:40:15.587Z,101063.72
2023-05-22T08:42:45.608Z,101064.97
2023-05-22T08:45:16.252Z,101066.03
2023-05-22T08:47:46.476Z,101064.75
2023-05-22T08:50:15.264Z,101060.72
2023-05-22T08:52:57.594Z,101054.16
2023-05-22T08:55:25.195Z,101047.22
2023-05-22T08:58:02.528Z,101054.59
2023-05-22T09:00:37.176Z,101052.44
2023-05-22T09:03:10.241Z,101045.78
2023-05-22T09:05:37.242Z,101040.19
2023-05-22T09:08:19.035Z,101039.28
2023-05-22T09:10:46.994Z,101042.81
2023-05-22T09:13:26.807Z,101037.88
2023-05-22T09:16:12.781Z,101040.38
2023-05-22T09:18:42.391Z,101041.09
2023-05-22T09:21:25.971Z,101038.13
2023-05-22T09:24:06.232Z,101033.75
2023-05-22T09:26:33.717Z,101032.19
2023-05-22T09:29:11.781Z,101035.81
2023-05-22T09:31:44.493Z,101035.56
2023-05-22T09:34:15.978Z,101030.44
2023-05-22T09:36:43.639Z,101034.09
2023-05-22T09:39:10.884Z,101030.38
2023-05-22T09:41:43.069Z,101020.47
2023-05-22T09:44:15.947Z,101023.91
2023-05-22T09:46:46.766Z,101037.22
2023-05-22T09:49:19.077Z,101024.63
2023-05-22T09:51:58.747Z,101028.13
2023-05-22T09:54:28.014Z,101018.34
2023-05-22T09:57:08.024Z,101019.81
2023-05-22T09:59:40.250Z,101019.50
2023-05-22T10:02:11.157Z,101011.25
2023-05-22T10:04:43.990Z,101015.50
2023-05-22T10:07:12.497Z,101010.00
2023-05-22T10:09:51.718Z,101012.75
2023-05-22T10:12:24.140Z,101000.84
2023-05-22T10:14:57.086Z,100991.97
2023-05-22T10:17:26.956Z,100993.00
2023-05-22T10:20:03.494Z,101006.19
2023-05-22T10:22:35.629Z,100996.28
2023-05-22T10:25:12.435Z,100992.81
2023-05-22T10:27:41.524Z,100984.28
2023-05-22T10:30:21.094Z,100994.56
2023-05-22T10:33:26.176Z,100997.13
2023-05-22T10:37:16.872Z,100992.25
2023-05-22T10:40:46.567Z,100988.28
2023-05-22T10:43:13.986Z,100980.81
2023-05-22T10:45:46.403Z,100974.41
2023-05-22T10:48:13.316Z,100979.34
2023-05-22T10:50:51.288Z,100972.88
2023-05-22T10:53:34.316Z,100969.75
2023-05-22T10:56:16.144Z,100967.50
2023-05-22T10:59:08.982Z,100971.25
2023-05-22T11:01:40.869Z,100957.47
2023-05-22T11:04:12.006Z,100970.16
2023-05-22T11:06:41.363Z,100967.13
2023-05-22T11:09:43.232Z,100969.03
2023-05-22T11:12:28.794Z,100968.03
2023-05-22T11:15:32.661Z,100957.28
2023-05-22T11:18:06.929Z,100957.53
2023-05-22T11:20:42.987Z,100960.84
2023-05-22T11:23:14.378Z,100956.94
2023-05-22T11:25:41.998Z,100959.34
2023-05-22T11:28:13.057Z,100956.03
2023-05-22T11:30:41.699Z,100948.88
2023-05-22T11:33:12.890Z,100940.16
2023-05-22T11:35:45.963Z,100939.88
2023-05-22T11:38:14.774Z,100929.22
2023-05-22T11:40:44.594Z,100933.91
2023-05-22T11:43:11.796Z,100925.75
2023-05-22T11:45:40.061Z,100928.13
2023-05-22T11:48:12.826Z,100919.88
2023-05-22T11:50:47.336Z,100921.13
2023-05-22T11:53:14.671Z,100913.19
2023-05-22T11:55:43.407Z,100907.19
2023-05-22T11:58:12.757Z,100906.13
2023-05-22T12:00:42.729Z,100908.59
2023-05-22T12:03:13.609Z,100914.00
2023-05-22T12:05:40.841Z,100904.28
2023-05-22T12:08:10.130Z,100910.72
2023-05-22T12:10:49.211Z,100902.88
2023-05-22T12:13:26.846Z,100908.16
2023-05-22T12:16:01.025Z,100912.25
2023-05-22T12:18:39.132Z,100913.06
2023-05-22T12:21:11.093Z,100907.22
2023-05-22T12:23:52.223Z,100918.34
2023-05-22T12:26:19.947Z,100912.50
2023-05-22T12:28:46.725Z,100907.41
2023-05-22T12:31:23.657Z,100908.09
2023-05-22T12:33:59.167Z,100900.47
2023-05-22T12:36:37.930Z,100903.31
2023-05-22T12:39:22.376Z,100901.41
2023-05-22T12:41:56.538Z,100891.16
2023-05-22T12:44:23.479Z,100888.72
2023-05-22T12:47:02.787Z,100884.78
2023-05-22T12:49:29.629Z,100880.47
2023-05-22T12:51:59.231Z,100879.72
2023-05-22T12:54:26.267Z,100877.03
2023-05-22T12:57:11.704Z,100873.09
2023-05-22T12:59:38.635Z,100881.22
2023-05-22T13:02:12.005Z,100868.56
2023-05-22T13:04:38.868Z,100881.72
2023-05-22T13:07:12.023Z,100869.41
2023-05-22T13:09:42.142Z,100864.81
2023-05-22T13:12:12.187Z,100863.75
2023-05-22T13:14:42.224Z,100861.78
2023-05-22T13:17:12.038Z,100872.00
2023-05-22T13:19:39.193Z,100872.66
2023-05-22T13:22:12.474Z,100876.16
2023-05-22T13:24:39.280Z,100874.94
2023-05-22T13:27:12.447Z,100870.84
2023-05-22T13:29:39.448Z,100875.84
2023-05-22T13:32:09.132Z,100866.13
2023-05-22T13:34:36.764Z,100855.41
2023-05-22T13:37:13.368Z,100864.28
2023-05-22T13:39:40.273Z,100864.97
2023-05-22T13:42:17.607Z,100857.88
2023-05-22T13:44:50.820Z,100850.13
2023-05-22T13:47:19.686Z,100853.53
2023-05-22T13:49:47.904Z,100855.75
2023-05-22T13:52:15.109Z,100851.28
2023-05-22T13:54:45.370Z,100838.22
2023-05-22T13:57:12.106Z,100848.16
2023-05-22T13:59:41.612Z,100837.91
2023-05-22T14:02:14.006Z,100838.59
2023-05-22T14:04:41.170Z,100835.63
2023-05-22T14:07:11.039Z,100831.97
2023-05-22T14:09:40.264Z,100831.47
2023-05-22T14:12:15.868Z,100823.16
2023-05-22T14:14:45.873Z,100833.16
2023-05-22T14:17:12.780Z,100813.94
2023-05-22T14:19:45.760Z,100819.06
2023-05-22T14:22:12.624Z,100804.72
2023-05-22T14:24:39.366Z,100813.03
2023-05-22T14:27:12.330Z,100805.69
2023-05-22T14:29:41.947Z,100808.16
2023-05-22T14:32:11.777Z,100794.84
2023-05-22T14:34:38.590Z,100796.91
2023-05-22T14:37:10.419Z,100793.13
2023-05-22T14:39:45.494Z,100796.78
2023-05-22T14:42:12.519Z,100785.03
2023-05-22T14:44:42.505Z,100785.47
2023-05-22T14:47:21.883Z,100778.75
2023-05-22T14:49:48.914Z,100779.75
2023-05-22T14:52:25.271Z,100769.91
2023-05-22T14:54:53.589Z,100771.72
2023-05-22T14:57:20.607Z,100767.56
2023-05-22T14:59:47.752Z,100768.91
2023-05-22T15:02:14.724Z,100762.91
2023-05-22T15:04:41.584Z,100760.84
2023-05-22T15:07:14.606Z,100763.22
2023-05-22T15:09:41.379Z,100753.28
2023-05-22T15:12:25.116Z,100757.03
2023-05-22T15:14:51.906Z,100749.16
2023-05-22T15:17:23.633Z,100731.19
2023-05-22T15:19:50.559Z,100733.19
2023-05-22T15:22:19.950Z,100733.34
2023-05-22T15:25:24.305Z,100725.91
2023-05-22T15:27:51.444Z,100724.06
2023-05-22T15:30:23.101Z,100720.66
2023-05-22T15:32:50.152Z,100712.13
2023-05-22T15:35:17.196Z,100711.97
2023-05-22T15:37:50.265Z,100714.34
2023-05-22T15:40:23.994Z,100705.94
2023-05-22T15:42:55.358Z,100718.00
2023-05-22T15:45:25.321Z,100698.69
2023-05-22T15:47:55.816Z,100708.47
2023-05-22T15:50:22.626Z,100702.13
2023-05-22T15:52:49.562Z,100695.97
2023-05-22T15:55:16.805Z,100688.59
2023-05-22T15:57:43.625Z,100683.84
2023-05-22T16:00:14.361Z,100692.22
2023-05-22T16:05:38.777Z,100681.31
2023-05-22T16:08:17.680Z,100703.63
2023-05-22T16:16:13.512Z,100692.63
2023-05-22T16:24:14.305Z,100689.97
2023-05-22T16:29:22.801Z,100689.03
2023-05-22T16:31:50.121Z,100683.56
2023-05-22T16:37:17.522Z,100682.72
2023-05-22T16:39:50.007Z,100682.09
2023-05-22T16:53:26.483Z,100682.34
2023-05-22T16:56:15.068Z,100668.88
2023-05-22T16:58:44.371Z,100665.09
2023-05-22T17:01:23.021Z,100659.44
2023-05-22T17:03:55.373Z,100659.66
2023-05-22T17:06:25.128Z,100650.84
2023-05-22T17:09:00.187Z,100645.16
2023-05-22T17:14:08.618Z,100634.91
2023-05-22T17:19:27.020Z,100630.25
2023-05-22T17:38:08.520Z,100631.31
2023-05-22T17:40:45.011Z,100641.22
2023-05-22T17:46:07.811Z,100632.34
2023-05-22T17:51:18.130Z,100631.88
2023-05-22T17:53:48.645Z,100634.44
2023-05-22T17:56:25.641Z,100622.84
2023-05-22T17:59:00.459Z,100623.03
2023-05-22T18:04:12.455Z,100627.25
2023-05-22T18:09:20.284Z,100625.75
2023-05-22T18:14:27.990Z,100625.53
2023-05-22T18:17:04.680Z,100630.59
2023-05-22T18:22:18.171Z,100623.03
2023-05-22T18:24:45.045Z,100634.53
2023-05-22T18:27:17.697Z,100628.47
2023-05-22T18:29:45.231Z,100637.50
2023-05-22T18:32:18.761Z,100632.03
2023-05-22T18:34:52.230Z,100628.25
2023-05-22T18:37:30.492Z,100627.22
2023-05-22T18:42:42.745Z,100620.91
2023-05-22T18:45:15.281Z,100630.16
2023-05-22T18:47:42.081Z,100623.88
2023-05-22T18:50:09.771Z,100629.34
2023-05-22T18:52:39.257Z,100641.94
2023-05-22T18:55:19.467Z,100661.03
2023-05-22T18:57:46.477Z,100665.13
2023-05-22T19:00:14.182Z,100670.34
2023-05-22T19:02:44.194Z,100674.94
2023-05-22T19:05:21.235Z,100669.22
2023-05-22T19:07:48.358Z,100665.16
2023-05-22T19:10:22.870Z,100684.19
2023-05-22T19:12:51.984Z,100684.75
2023-05-22T19:15:23.640Z,100692.69
2023-05-22T19:17:50.657Z,100685.94
2023-05-22T19:20:21.525Z,100683.63
2023-05-22T19:22:48.628Z,100690.53
2023-05-22T19:25:19.607Z,100693.97
2023-05-22T19:27:48.736Z,100700.38
2023-05-22T19:30:20.881Z,100708.28
2023-05-22T19:32:49.855Z,100703.72
2023-05-22T19:35:20.690Z,100706.22
2023-05-22T19:37:47.653Z,100698.34
2023-05-22T19:40:23.947Z,100694.16
2023-05-22T19:42:50.998Z,100688.94
2023-05-22T19:45:20.695Z,100700.75
2023-05-22T19:47:47.481Z,100693.75
2023-05-22T19:50:14.387Z,100717.78
2023-05-22T19:52:41.598Z,100724.59
2023-05-22T19:55:10.212Z,100723.41
2023-05-22T19:57:37.239Z,100712.44
2023-05-22T20:00:10.950Z,100720.91
2023-05-22T20:02:40.023Z,100721.88
2023-05-22T20:05:09.436Z,100714.88
2023-05-22T20:07:36.429Z,100730.25
2023-05-22T20:10:07.330Z,100724.94
2023-05-22T20:12:38.198Z,100727.19
2023-05-22T20:15:10.590Z,100737.22
2023-05-22T20:17:38.412Z,100736.56
2023-05-22T20:20:09.718Z,100734.91
2023-05-22T20:22:36.518Z,100734.03
2023-05-22T20:25:07.903Z,100732.84
2023-05-22T20:27:34.684Z,100721.94
2023-05-22T20:30:01.484Z,100728.00
2023-05-22T20:32:28.822Z,100735.81
2023-05-22T20:35:01.078Z,100740.69
2023-05-22T20:37:27.782Z,100741.44
2023-05-22T20:40:09.404Z,100739.63
2023-05-22T20:42:37.772Z,100732.00
2023-05-22T20:45:13.654Z,100737.25
2023-05-22T20:47:41.444Z,100739.91
2023-05-22T20:50:09.126Z,100752.13
2023-05-22T20:52:37.562Z,100743.41
2023-05-22T20:55:08.631Z,100737.03
2023-05-22T20:57:35.638Z,100742.56
2023-05-22T21:00:13.719Z,100744.50
2023-05-22T21:02:57.070Z,100750.69
2023-05-22T21:05:27.930Z,100746.22
2023-05-22T21:07:58.157Z,100739.56
2023-05-22T21:10:27.846Z,100750.13
2023-05-22T21:12:57.583Z,100745.13
2023-05-22T21:15:24.310Z,100737.75
2023-05-22T21:17:51.087Z,100741.47
2023-05-22T21:20:17.726Z,100740.16
2023-05-22T21:22:44.495Z,100721.22
2023-05-22T21:25:11.211Z,100725.78
2023-05-22T21:27:37.963Z,100731.59
2023-05-22T21:30:10.965Z,100738.06
2023-05-22T21:32:37.726Z,100750.13
2023-05-22T21:35:09.311Z,100754.63
2023-05-22T21:37:36.012Z,100743.84
2023-05-22T21:40:05.448Z,100745.38
2023-05-22T21:42:45.025Z,100743.88
2023-05-22T21:45:18.343Z,100742.84
2023-05-22T21:47:45.181Z,100734.56
2023-05-22T21:50:12.129Z,100741.09
2023-05-22T21:52:38.840Z,100742.16
2023-05-22T21:55:11.651Z,100739.97
2023-05-22T21:57:38.384Z,100732.88
2023-05-22T22:00:09.556Z,100724.06
2023-05-22T22:02:37.517Z,100722.34
2023-05-22T22:05:08.611Z,100719.88
2023-05-22T22:07:35.271Z,100718.72
2023-05-22T22:10:12.367Z,100719.44
2023-05-22T22:12:39.139Z,100714.56
2023-05-22T22:15:12.074Z,100708.44
2023-05-22T22:17:40.588Z,100710.50
2023-05-22T22:20:11.458Z,100701.38
2023-05-22T22:22:42.627Z,100706.97
2023-05-22T22:25:09.874Z,100714.59
2023-05-22T22:27:36.857Z,100704.03
2023-05-22T22:30:14.190Z,100695.06
2023-05-22T22:32:41.012Z,100696.94
2023-05-22T22:35:08.615Z,100698.97
2023-05-22T22:37:35.333Z,100706.25
2023-05-22T22:40:05.572Z,100688.41
2023-05-22T22:42:35.437Z,100681.97
2023-05-22T22:45:15.024Z,100680.94
2023-05-22T22:47:41.814Z,100678.88
2023-05-22T22:50:17.601Z,100668.41
2023-05-22T22:52:45.638Z,100649.22
2023-05-22T22:55:13.416Z,100658.69
2023-05-22T22:57:44.619Z,100650.00
2023-05-22T23:00:16.025Z,100643.38
2023-05-22T23:02:43.208Z,100650.31
2023-05-22T23:05:14.802Z,100648.06
2023-05-22T23:07:41.861Z,100643.19
2023-05-22T23:10:09.486Z,100650.88
2023-05-22T23:12:36.367Z,100650.00
2023-05-22T23:15:06.584Z,100656.09
2023-05-22T23:17:36.404Z,100650.88
2023-05-22T23:20:03.523Z,100640.53
2023-05-22T23:22:30.566Z,100634.63
2023-05-22T23:24:57.506Z,100634.44
2023-05-22T23:27:27.836Z,100629.38
2023-05-22T23:29:58.369Z,100635.66
2023-05-22T23:32:27.980Z,100630.56
2023-05-22T23:35:18.345Z,100624.81
2023-05-22T23:37:45.115Z,100618.72
2023-05-22T23:40:12.663Z,100612.41
2023-05-22T23:42:39.399Z,100605.47
2023-05-22T23:45:14.864Z,100593.84
2023-05-22T23:47:41.662Z,100598.13
2023-05-22T23:50:13.698Z,100598.78
2023-05-22T23:53:09.867Z,100602.72
2023-05-22T23:55:36.721Z,100595.59
2023-05-22T23:58:06.869Z,100595.41
